createdAt,value
2019-06-15T00:00:25.855Z,98827.17
2019-06-15T00:06:30.412Z,98811.59
2019-06-15T00:12:36.614Z,98816.75
2019-06-15T00:18:41.283Z,98818.18
2019-06-15T00:24:45.852Z,98802.39
2019-06-15T00:30:50.419Z,98770.02
2019-06-15T00:36:55.036Z,98765.44
2019-06-15T00:43:01.265Z,98747.45
2019-06-15T00:49:05.897Z,98732.25
2019-06-15T00:55:10.595Z,98722.44
2019-06-15T01:01:15.231Z,98704.48
2019-06-15T01:07:21.427Z,98669.89
2019-06-15T01:13:25.988Z,98622.52
2019-06-15T01:19:30.607Z,98594.57
2019-06-15T01:25:35.359Z,98582.84
2019-06-15T01:31:40.049Z,98581.48
2019-06-15T01:37:44.597Z,98588.88
2019-06-15T01:43:49.181Z,98617.35
2019-06-15T01:49:53.730Z,98613.06
2019-06-15T01:55:59.869Z,98585.83
2019-06-15T02:02:04.498Z,98573.66
2019-06-15T02:08:09.115Z,98578.50
2019-06-15T02:14:13.671Z,98626.95
2019-06-15T02:20:18.786Z,98642.50
2019-06-15T02:26:23.369Z,98633.45
2019-06-15T02:32:27.955Z,98608.64
2019-06-15T02:38:32.665Z,98603.45
2019-06-15T02:44:37.218Z,98605.67
2019-06-15T02:50:41.831Z,98610.18
2019-06-15T02:56:47.896Z,98601.83
2019-06-15T03:02:52.524Z,98589.52
2019-06-15T03:08:58.178Z,98580.36
2019-06-15T03:15:02.858Z,98567.25
2019-06-15T03:21:07.447Z,98549.69
2019-06-15T03:27:12.568Z,98559.14
2019-06-15T03:33:17.274Z,98549.03
2019-06-15T03:39:24.913Z,98535.39
2019-06-15T03:45:29.460Z,98530.95
2019-06-15T03:51:34.078Z,98548.46
2019-06-15T03:57:39.162Z,98549.81
2019-06-15T04:03:43.799Z,98540.54
2019-06-15T04:09:48.490Z,98517.33
2019-06-15T04:15:53.097Z,98522.67
2019-06-15T04:21:57.736Z,98535.89
2019-06-15T04:28:02.355Z,98504.95
2019-06-15T04:34:08.534Z,98504.14
2019-06-15T04:40:15.505Z,98492.11
2019-06-15T04:46:20.237Z,98503.91
2019-06-15T04:52:24.785Z,98499.06
2019-06-15T04:58:30.976Z,98485.83
2019-06-15T05:04:36.064Z,98485.11
2019-06-15T05:10:40.652Z,98497.00
2019-06-15T05:16:45.204Z,98472.98
2019-06-15T05:22:49.758Z,98465.75
2019-06-15T05:28:55.955Z,98481.97
2019-06-15T05:35:00.524Z,98472.72
2019-06-15T05:41:07.321Z,98472.27
2019-06-15T05:47:11.930Z,98475.52
2019-06-15T05:53:16.502Z,98479.90
2019-06-15T05:59:23.948Z,98493.59
2019-06-15T06:05:28.511Z,98500.19
2019-06-15T06:11:33.081Z,98486.88
2019-06-15T06:17:42.278Z,98480.95
2019-06-15T06:23:46.377Z,98484.09
2019-06-15T06:29:53.929Z,98486.63
2019-06-15T06:35:58.460Z,98492.91
2019-06-15T06:42:04.728Z,98495.97
2019-06-15T06:48:09.287Z,98505.34
2019-06-15T06:54:17.645Z,98521.97
2019-06-15T07:00:37.110Z,98534.46
2019-06-15T07:06:41.646Z,98539.06
2019-06-15T07:12:46.201Z,98535.86
2019-06-15T07:18:50.756Z,98534.69
2019-06-15T07:24:55.320Z,98539.07
2019-06-15T07:30:59.882Z,98543.19
2019-06-15T07:37:04.521Z,98550.89
2019-06-15T07:43:09.065Z,98542.61
2019-06-15T07:49:13.805Z,98545.92
2019-06-15T07:55:18.405Z,98552.03
2019-06-15T08:01:23.023Z,98564.12
2019-06-15T08:07:29.432Z,98572.05
2019-06-15T08:13:34.084Z,98583.18
2019-06-15T08:19:41.780Z,98602.47
2019-06-15T08:25:46.469Z,98604.20
2019-06-15T08:31:54.897Z,98607.42
2019-06-15T08:37:59.498Z,98613.70
2019-06-15T08:44:04.183Z,98623.29
2019-06-15T08:50:09.415Z,98635.22
2019-06-15T08:56:14.128Z,98654.09
2019-06-15T09:02:18.746Z,98663.33
2019-06-15T09:08:23.420Z,98678.52
2019-06-15T09:14:28.003Z,98673.05
2019-06-15T09:20:35.732Z,98676.60
2019-06-15T09:26:40.323Z,98669.32
2019-06-15T09:32:44.881Z,98678.78
2019-06-15T09:38:50.311Z,98679.75
2019-06-15T09:44:55.700Z,98691.73
2019-06-15T09:51:00.473Z,98697.34
2019-06-15T09:57:05.227Z,98702.78
2019-06-15T10:03:09.868Z,98713.33
2019-06-15T10:09:14.442Z,98731.67
2019-06-15T10:15:24.063Z,98744.56
2019-06-15T10:21:28.888Z,98759.75
2019-06-15T10:27:33.445Z,98774.55
2019-06-15T10:33:39.761Z,98781.33
2019-06-15T10:39:44.487Z,98799.38
2019-06-15T10:45:49.195Z,98815.97
2019-06-15T10:51:58.245Z,98821.40
2019-06-15T10:58:05.975Z,98850.00
2019-06-15T11:04:10.533Z,98845.96
2019-06-15T11:10:17.938Z,98850.95
2019-06-15T11:16:26.086Z,98863.54
2019-06-15T11:22:30.691Z,98861.34
2019-06-15T11:28:36.344Z,98879.87
2019-06-15T11:34:40.963Z,98891.55
2019-06-15T11:40:45.517Z,98897.66
2019-06-15T11:46:50.218Z,98909.03
2019-06-15T11:52:54.758Z,98921.72
2019-06-15T11:59:00.638Z,98924.08
2019-06-15T12:05:11.496Z,98931.16
2019-06-15T12:11:16.103Z,98923.18
2019-06-15T12:17:20.790Z,98921.24
2019-06-15T12:23:25.398Z,98912.53
2019-06-15T12:29:30.095Z,98925.06
2019-06-15T12:35:34.790Z,98923.66
2019-06-15T12:41:39.337Z,98932.65
2019-06-15T12:47:43.895Z,98940.79
2019-06-15T12:53:49.686Z,98954.55
2019-06-15T12:59:56.136Z,98954.11
2019-06-15T13:06:02.322Z,98959.56
2019-06-15T13:12:07.016Z,98962.52
2019-06-15T13:18:11.554Z,98962.23
2019-06-15T13:24:16.372Z,98960.41
2019-06-15T13:30:22.554Z,98972.19
2019-06-15T13:36:27.160Z,98977.28
2019-06-15T13:42:31.777Z,98986.37
2019-06-15T13:48:36.317Z,99000.78
2019-06-15T13:54:42.649Z,99006.20
2019-06-15T14:00:47.318Z,99009.24
2019-06-15T14:06:51.939Z,99018.52
2019-06-15T14:12:59.675Z,99019.16
2019-06-15T14:19:05.832Z,99021.34
2019-06-15T14:25:11.042Z,99029.94
2019-06-15T14:31:15.665Z,99037.51
2019-06-15T14:37:20.358Z,99037.89
2019-06-15T14:43:25.394Z,99045.50
2019-06-15T14:49:29.948Z,99075.59
2019-06-15T14:55:36.624Z,99089.02
2019-06-15T15:01:41.042Z,99088.19
2019-06-15T15:07:46.977Z,99090.56
2019-06-15T15:13:51.734Z,99098.19
2019-06-15T15:19:57.412Z,99102.02
2019-06-15T15:26:02.255Z,99091.70
2019-06-15T15:32:07.990Z,99106.17
2019-06-15T15:38:13.252Z,99103.48
2019-06-15T15:44:17.822Z,99102.58
2019-06-15T15:50:22.391Z,99106.25
2019-06-15T15:56:27.314Z,99103.97
2019-06-15T16:02:45.569Z,99107.55
2019-06-15T16:08:38.193Z,99110.10
2019-06-15T16:14:42.742Z,99109.25
2019-06-15T16:20:51.553Z,99113.79
2019-06-15T16:26:58.963Z,99115.62
2019-06-15T16:33:04.228Z,99123.34
2019-06-15T16:39:09.261Z,99119.97
2019-06-15T16:45:16.129Z,99124.16
2019-06-15T16:51:20.923Z,99126.38
2019-06-15T16:57:26.643Z,99119.73
2019-06-15T17:03:36.502Z,99133.39
2019-06-15T17:09:41.052Z,99141.52
2019-06-15T17:15:46.920Z,99139.05
2019-06-15T17:21:53.265Z,99138.25
2019-06-15T17:28:04.178Z,99141.11
2019-06-15T17:34:11.815Z,99148.47
2019-06-15T17:40:17.948Z,99145.10
2019-06-15T17:46:28.915Z,99142.05
2019-06-15T17:52:30.595Z,99151.14
2019-06-15T17:58:37.040Z,99151.66
2019-06-15T18:04:41.608Z,99154.92
2019-06-15T18:10:47.503Z,99157.94
2019-06-15T18:16:52.791Z,99172.75
2019-06-15T18:22:57.513Z,99171.44
2019-06-15T18:29:02.057Z,99188.49
2019-06-15T18:35:10.891Z,99197.80
2019-06-15T18:41:17.052Z,99192.98
2019-06-15T18:47:21.968Z,99199.58
2019-06-15T18:53:26.997Z,99209.73
2019-06-15T18:59:31.581Z,99210.94
2019-06-15T19:05:40.997Z,99216.97
2019-06-15T19:11:43.219Z,99223.95
2019-06-15T19:17:47.776Z,99228.98
2019-06-15T19:23:52.371Z,99237.23
2019-06-15T19:29:56.944Z,99244.01
2019-06-15T19:36:01.501Z,99251.37
2019-06-15T19:42:06.127Z,99263.30
2019-06-15T19:48:11.332Z,99266.39
2019-06-15T19:54:16.082Z,99280.09
2019-06-15T20:00:21.127Z,99280.14
2019-06-15T20:06:26.134Z,99279.53
2019-06-15T20:12:30.811Z,99279.72
2019-06-15T20:18:37.443Z,99286.52
2019-06-15T20:24:41.707Z,99275.56
2019-06-15T20:30:47.775Z,99272.51
2019-06-15T20:36:55.309Z,99277.06
2019-06-15T20:42:59.869Z,99283.03
2019-06-15T20:49:06.576Z,99276.24
2019-06-15T20:55:11.226Z,99282.31
2019-06-15T21:01:16.446Z,99287.69
2019-06-15T21:07:21.177Z,99281.09
2019-06-15T21:13:26.356Z,99276.89
2019-06-15T21:19:35.957Z,99275.97
2019-06-15T21:25:40.065Z,99273.50
2019-06-15T21:31:46.407Z,99286.95
2019-06-15T21:37:51.057Z,99301.53
2019-06-15T21:43:56.538Z,99310.78
2019-06-15T21:50:01.263Z,99314.90
2019-06-15T21:56:07.175Z,99326.20
2019-06-15T22:02:12.092Z,99333.33
2019-06-15T22:08:17.125Z,99341.81
2019-06-15T22:14:21.798Z,99356.59
2019-06-15T22:20:26.435Z,99382.64
2019-06-15T22:26:30.989Z,99404.75
2019-06-15T22:32:35.546Z,99410.97
2019-06-15T22:38:40.099Z,99420.13
2019-06-15T22:44:46.434Z,99427.64
2019-06-15T22:50:51.159Z,99452.09
2019-06-15T22:56:56.640Z,99455.16
2019-06-15T23:03:01.367Z,99457.85
2019-06-15T23:09:07.549Z,99451.86
2019-06-15T23:15:13.492Z,99446.05
2019-06-15T23:21:18.050Z,99459.63
2019-06-15T23:27:22.621Z,99458.27
2019-06-15T23:33:27.153Z,99478.88
2019-06-15T23:39:31.709Z,99490.73
2019-06-15T23:45:36.307Z,99480.75
2019-06-15T23:51:40.867Z,99480.20
2019-06-15T23:57:46.516Z,99481.22
